sensor_id;sensor_type;location;lat;lon;timestamp;P1;durP1;ratioP1;P2;durP2;ratioP2
69325;SDS011;56471;53.508;49.252;2022-07-03T00:01:49;7.88;;;5.60;;
69325;SDS011;56471;53.508;49.252;2022-07-03T00:04:15;9.15;;;5.97;;
69325;SDS011;56471;53.508;49.252;2022-07-03T00:06:41;11.55;;;5.47;;
69325;SDS011;56471;53.508;49.252;2022-07-03T00:09:06;353.50;;;247.45;;
69325;SDS011;56471;53.508;49.252;2022-07-03T00:11:32;550.42;;;389.60;;
69325;SDS011;56471;53.508;49.252;2022-07-03T00:13:58;394.80;;;259.67;;
69325;SDS011;56471;53.508;49.252;2022-07-03T00:16:25;298.00;;;177.43;;
69325;SDS011;56471;53.508;49.252;2022-07-03T00:18:50;181.30;;;105.72;;
69325;SDS011;56471;53.508;49.252;2022-07-03T00:21:24;68.32;;;34.10;;
69325;SDS011;56471;53.508;49.252;2022-07-03T00:23:56;38.95;;;19.38;;
69325;SDS011;56471;53.508;49.252;2022-07-03T00:26:27;24.90;;;12.68;;
69325;SDS011;56471;53.508;49.252;2022-07-03T00:28:58;18.83;;;10.07;;
69325;SDS011;56471;53.508;49.252;2022-07-03T00:31:28;18.42;;;8.32;;
69325;SDS011;56471;53.508;49.252;2022-07-03T00:33:57;17.33;;;8.15;;
69325;SDS011;56471;53.508;49.252;2022-07-03T00:36:26;12.30;;;7.40;;
69325;SDS011;56471;53.508;49.252;2022-07-03T00:38:54;12.38;;;7.05;;
69325;SDS011;56471;53.508;49.252;2022-07-03T00:41:31;12.27;;;6.70;;
69325;SDS011;56471;53.508;49.252;2022-07-03T00:43:59;9.50;;;6.47;;
69325;SDS011;56471;53.508;49.252;2022-07-03T00:46:26;9.55;;;6.72;;
69325;SDS011;56471;53.508;49.252;2022-07-03T00:48:54;11.40;;;6.68;;
69325;SDS011;56471;53.508;49.252;2022-07-03T00:51:21;9.68;;;6.32;;
69325;SDS011;56471;53.508;49.252;2022-07-03T00:53:52;11.70;;;6.50;;
69325;SDS011;56471;53.508;49.252;2022-07-03T00:56:24;11.65;;;6.78;;
69325;SDS011;56471;53.508;49.252;2022-07-03T00:58:52;11.70;;;6.15;;
69325;SDS011;56471;53.508;49.252;2022-07-03T01:01:28;10.45;;;6.10;;
69325;SDS011;56471;53.508;49.252;2022-07-03T01:09:23;8.15;;;5.97;;
69325;SDS011;56471;53.508;49.252;2022-07-03T01:12:02;7.57;;;5.70;;
69325;SDS011;56471;53.508;49.252;2022-07-03T01:15:20;7.28;;;5.35;;
69325;SDS011;56471;53.508;49.252;2022-07-03T01:17:38;9.00;;;5.60;;
69325;SDS011;56471;53.508;49.252;2022-07-03T01:20:05;7.93;;;5.47;;
69325;SDS011;56471;53.508;49.252;2022-07-03T01:30:14;8.27;;;5.53;;
69325;SDS011;56471;53.508;49.252;2022-07-03T01:35:24;7.93;;;5.10;;
69325;SDS011;56471;53.508;49.252;2022-07-03T01:38:16;7.57;;;5.45;;
69325;SDS011;56471;53.508;49.252;2022-07-03T01:40:45;10.25;;;5.55;;
69325;SDS011;56471;53.508;49.252;2022-07-03T01:43:14;7.22;;;5.10;;
69325;SDS011;56471;53.508;49.252;2022-07-03T01:45:42;7.38;;;5.05;;
69325;SDS011;56471;53.508;49.252;2022-07-03T01:48:10;5.90;;;5.30;;
69325;SDS011;56471;53.508;49.252;2022-07-03T01:50:37;9.90;;;5.82;;
69325;SDS011;56471;53.508;49.252;2022-07-03T01:53:05;8.48;;;5.40;;
69325;SDS011;56471;53.508;49.252;2022-07-03T01:55:32;10.02;;;5.47;;
69325;SDS011;56471;53.508;49.252;2022-07-03T01:57:59;8.90;;;5.22;;
69325;SDS011;56471;53.508;49.252;2022-07-03T02:00:25;13.02;;;5.70;;
69325;SDS011;56471;53.508;49.252;2022-07-03T02:03:02;9.32;;;5.70;;
69325;SDS011;56471;53.508;49.252;2022-07-03T02:05:31;9.10;;;5.80;;
69325;SDS011;56471;53.508;49.252;2022-07-03T02:08:08;9.23;;;6.07;;
69325;SDS011;56471;53.508;49.252;2022-07-03T02:11:10;10.65;;;5.93;;
69325;SDS011;56471;53.508;49.252;2022-07-03T02:16:19;10.15;;;5.93;;
69325;SDS011;56471;53.508;49.252;2022-07-03T02:18:55;11.55;;;5.90;;
69325;SDS011;56471;53.508;49.252;2022-07-03T02:21:25;8.60;;;5.93;;
69325;SDS011;56471;53.508;49.252;2022-07-03T02:26:34;11.52;;;6.00;;
69325;SDS011;56471;53.508;49.252;2022-07-03T02:29:09;12.82;;;5.90;;
69325;SDS011;56471;53.508;49.252;2022-07-03T02:31:45;11.60;;;5.82;;
69325;SDS011;56471;53.508;49.252;2022-07-03T02:34:16;12.15;;;5.80;;
69325;SDS011;56471;53.508;49.252;2022-07-03T02:36:46;9.55;;;5.60;;
69325;SDS011;56471;53.508;49.252;2022-07-03T02:41:58;7.03;;;4.97;;
69325;SDS011;56471;53.508;49.252;2022-07-03T02:50:11;6.95;;;5.00;;
69325;SDS011;56471;53.508;49.252;2022-07-03T02:52:42;7.07;;;4.47;;
69325;SDS011;56471;53.508;49.252;2022-07-03T02:58:32;9.40;;;4.60;;
69325;SDS011;56471;53.508;49.252;2022-07-03T03:06:33;7.05;;;4.72;;
69325;SDS011;56471;53.508;49.252;2022-07-03T03:09:02;6.82;;;4.40;;
69325;SDS011;56471;53.508;49.252;2022-07-03T03:11:37;7.97;;;4.50;;
69325;SDS011;56471;53.508;49.252;2022-07-03T03:14:08;4.97;;;4.38;;
69325;SDS011;56471;53.508;49.252;2022-07-03T03:16:46;6.00;;;4.38;;
69325;SDS011;56471;53.508;49.252;2022-07-03T03:19:13;8.07;;;4.80;;
69325;SDS011;56471;53.508;49.252;2022-07-03T03:21:42;7.40;;;4.88;;
69325;SDS011;56471;53.508;49.252;2022-07-03T03:24:18;5.10;;;4.55;;
69325;SDS011;56471;53.508;49.252;2022-07-03T03:26:44;11.30;;;4.40;;
69325;SDS011;56471;53.508;49.252;2022-07-03T03:29:10;5.85;;;4.20;;
69325;SDS011;56471;53.508;49.252;2022-07-03T03:31:36;5.00;;;3.97;;
69325;SDS011;56471;53.508;49.252;2022-07-03T03:34:02;4.90;;;3.92;;
69325;SDS011;56471;53.508;49.252;2022-07-03T03:36:29;4.82;;;3.97;;
69325;SDS011;56471;53.508;49.252;2022-07-03T03:38:56;6.93;;;4.30;;
69325;SDS011;56471;53.508;49.252;2022-07-03T03:41:22;6.13;;;3.95;;
69325;SDS011;56471;53.508;49.252;2022-07-03T03:43:48;4.93;;;3.85;;
69325;SDS011;56471;53.508;49.252;2022-07-03T03:46:14;6.47;;;3.78;;
69325;SDS011;56471;53.508;49.252;2022-07-03T03:48:40;5.78;;;4.13;;
69325;SDS011;56471;53.508;49.252;2022-07-03T03:51:06;4.45;;;3.90;;
69325;SDS011;56471;53.508;49.252;2022-07-03T03:53:32;4.90;;;3.67;;
69325;SDS011;56471;53.508;49.252;2022-07-03T03:58:32;5.93;;;3.72;;
69325;SDS011;56471;53.508;49.252;2022-07-03T04:00:59;4.32;;;3.60;;
69325;SDS011;56471;53.508;49.252;2022-07-03T04:03:27;4.18;;;3.78;;
69325;SDS011;56471;53.508;49.252;2022-07-03T04:05:55;3.50;;;3.20;;
69325;SDS011;56471;53.508;49.252;2022-07-03T04:08:21;4.65;;;3.78;;
69325;SDS011;56471;53.508;49.252;2022-07-03T04:10:48;6.53;;;3.50;;
69325;SDS011;56471;53.508;49.252;2022-07-03T04:13:14;5.43;;;3.40;;
69325;SDS011;56471;53.508;49.252;2022-07-03T04:15:40;3.63;;;3.20;;
69325;SDS011;56471;53.508;49.252;2022-07-03T04:18:07;4.90;;;3.42;;
69325;SDS011;56471;53.508;49.252;2022-07-03T04:20:33;5.38;;;3.30;;
69325;SDS011;56471;53.508;49.252;2022-07-03T04:22:59;4.35;;;3.22;;
69325;SDS011;56471;53.508;49.252;2022-07-03T04:25:25;5.18;;;3.50;;
69325;SDS011;56471;53.508;49.252;2022-07-03T04:27:51;3.67;;;3.30;;
69325;SDS011;56471;53.508;49.252;2022-07-03T04:30:17;3.65;;;3.00;;
69325;SDS011;56471;53.508;49.252;2022-07-03T04:32:43;3.90;;;3.22;;
69325;SDS011;56471;53.508;49.252;2022-07-03T04:35:10;8.68;;;3.15;;
69325;SDS011;56471;53.508;49.252;2022-07-03T04:37:36;5.22;;;3.35;;
69325;SDS011;56471;53.508;49.252;2022-07-03T04:40:02;3.63;;;3.08;;
69325;SDS011;56471;53.508;49.252;2022-07-03T04:42:28;6.63;;;3.20;;
69325;SDS011;56471;53.508;49.252;2022-07-03T04:44:54;4.20;;;3.10;;
69325;SDS011;56471;53.508;49.252;2022-07-03T04:47:20;6.07;;;3.30;;
69325;SDS011;56471;53.508;49.252;2022-07-03T04:49:45;3.55;;;3.22;;
69325;SDS011;56471;53.508;49.252;2022-07-03T04:52:12;5.72;;;3.22;;
69325;SDS011;56471;53.508;49.252;2022-07-03T04:54:38;3.42;;;3.13;;
69325;SDS011;56471;53.508;49.252;2022-07-03T04:57:03;4.72;;;3.53;;
69325;SDS011;56471;53.508;49.252;2022-07-03T04:59:30;4.47;;;3.42;;
69325;SDS011;56471;53.508;49.252;2022-07-03T05:01:56;4.50;;;3.40;;
69325;SDS011;56471;53.508;49.252;2022-07-03T05:04:21;3.30;;;3.00;;
69325;SDS011;56471;53.508;49.252;2022-07-03T05:06:47;3.88;;;3.42;;
69325;SDS011;56471;53.508;49.252;2022-07-03T05:09:13;4.05;;;3.35;;
69325;SDS011;56471;53.508;49.252;2022-07-03T05:11:39;3.75;;;3.22;;
69325;SDS011;56471;53.508;49.252;2022-07-03T05:14:06;3.78;;;3.40;;
69325;SDS011;56471;53.508;49.252;2022-07-03T05:16:32;3.80;;;3.30;;
69325;SDS011;56471;53.508;49.252;2022-07-03T05:18:58;4.60;;;3.10;;
69325;SDS011;56471;53.508;49.252;2022-07-03T05:21:24;4.32;;;3.30;;
69325;SDS011;56471;53.508;49.252;2022-07-03T05:23:50;3.80;;;3.10;;
69325;SDS011;56471;53.508;49.252;2022-07-03T05:26:16;3.40;;;3.10;;
69325;SDS011;56471;53.508;49.252;2022-07-03T05:28:42;3.35;;;3.03;;
69325;SDS011;56471;53.508;49.252;2022-07-03T05:31:08;4.25;;;3.42;;
69325;SDS011;56471;53.508;49.252;2022-07-03T05:33:34;4.25;;;2.92;;
69325;SDS011;56471;53.508;49.252;2022-07-03T05:36:00;3.88;;;3.50;;
69325;SDS011;56471;53.508;49.252;2022-07-03T05:38:26;3.50;;;3.10;;
69325;SDS011;56471;53.508;49.252;2022-07-03T05:41:10;4.93;;;3.50;;
69325;SDS011;56471;53.508;49.252;2022-07-03T05:43:37;4.55;;;3.42;;
69325;SDS011;56471;53.508;49.252;2022-07-03T05:46:03;3.50;;;3.20;;
69325;SDS011;56471;53.508;49.252;2022-07-03T05:48:29;4.32;;;3.05;;
69325;SDS011;56471;53.508;49.252;2022-07-03T05:50:55;3.38;;;3.05;;
69325;SDS011;56471;53.508;49.252;2022-07-03T05:53:22;3.38;;;3.08;;
69325;SDS011;56471;53.508;49.252;2022-07-03T05:55:48;4.18;;;3.08;;
69325;SDS011;56471;53.508;49.252;2022-07-03T05:58:14;3.50;;;3.17;;
69325;SDS011;56471;53.508;49.252;2022-07-03T06:00:40;5.32;;;3.05;;
69325;SDS011;56471;53.508;49.252;2022-07-03T06:03:06;3.40;;;3.10;;
69325;SDS011;56471;53.508;49.252;2022-07-03T06:05:32;4.30;;;3.10;;
69325;SDS011;56471;53.508;49.252;2022-07-03T06:07:58;3.15;;;2.88;;
69325;SDS011;56471;53.508;49.252;2022-07-03T06:10:25;3.60;;;3.05;;
69325;SDS011;56471;53.508;49.252;2022-07-03T06:12:51;3.92;;;3.00;;
69325;SDS011;56471;53.508;49.252;2022-07-03T06:15:17;5.72;;;2.85;;
69325;SDS011;56471;53.508;49.252;2022-07-03T06:17:43;3.30;;;3.00;;
69325;SDS011;56471;53.508;49.252;2022-07-03T06:20:09;3.35;;;2.70;;
69325;SDS011;56471;53.508;49.252;2022-07-03T06:22:36;3.40;;;3.08;;
69325;SDS011;56471;53.508;49.252;2022-07-03T06:25:02;5.30;;;3.00;;
69325;SDS011;56471;53.508;49.252;2022-07-03T06:27:29;3.25;;;2.95;;
69325;SDS011;56471;53.508;49.252;2022-07-03T06:29:55;4.28;;;3.00;;
69325;SDS011;56471;53.508;49.252;2022-07-03T06:32:21;3.30;;;3.00;;
69325;SDS011;56471;53.508;49.252;2022-07-03T06:34:47;4.07;;;3.00;;
69325;SDS011;56471;53.508;49.252;2022-07-03T06:37:14;5.45;;;3.05;;
69325;SDS011;56471;53.508;49.252;2022-07-03T06:39:40;3.08;;;2.83;;
69325;SDS011;56471;53.508;49.252;2022-07-03T06:42:06;3.13;;;2.80;;
69325;SDS011;56471;53.508;49.252;2022-07-03T06:44:32;3.45;;;2.90;;
69325;SDS011;56471;53.508;49.252;2022-07-03T06:46:58;3.28;;;2.88;;
69325;SDS011;56471;53.508;49.252;2022-07-03T06:49:28;4.63;;;2.72;;
69325;SDS011;56471;53.508;49.252;2022-07-03T06:51:55;3.00;;;2.70;;
69325;SDS011;56471;53.508;49.252;2022-07-03T06:54:20;3.30;;;2.95;;
69325;SDS011;56471;53.508;49.252;2022-07-03T06:56:46;3.17;;;2.92;;
69325;SDS011;56471;53.508;49.252;2022-07-03T06:59:12;3.22;;;2.92;;
69325;SDS011;56471;53.508;49.252;2022-07-03T07:01:37;4.07;;;2.67;;
69325;SDS011;56471;53.508;49.252;2022-07-03T07:04:03;4.43;;;2.80;;
69325;SDS011;56471;53.508;49.252;2022-07-03T07:06:29;4.53;;;2.70;;
69325;SDS011;56471;53.508;49.252;2022-07-03T07:08:55;4.00;;;2.90;;
69325;SDS011;56471;53.508;49.252;2022-07-03T07:11:21;3.42;;;2.83;;
69325;SDS011;56471;53.508;49.252;2022-07-03T07:13:47;3.38;;;2.72;;
69325;SDS011;56471;53.508;49.252;2022-07-03T07:16:12;2.67;;;2.47;;
69325;SDS011;56471;53.508;49.252;2022-07-03T07:18:41;3.20;;;2.78;;
69325;SDS011;56471;53.508;49.252;2022-07-03T07:21:08;3.15;;;2.80;;
69325;SDS011;56471;53.508;49.252;2022-07-03T07:23:35;2.90;;;2.63;;
69325;SDS011;56471;53.508;49.252;2022-07-03T07:26:01;2.67;;;2.47;;
69325;SDS011;56471;53.508;49.252;2022-07-03T07:28:27;2.50;;;2.30;;
69325;SDS011;56471;53.508;49.252;2022-07-03T07:30:53;2.70;;;2.30;;
69325;SDS011;56471;53.508;49.252;2022-07-03T07:33:20;4.82;;;2.42;;
69325;SDS011;56471;53.508;49.252;2022-07-03T07:35:46;2.67;;;2.47;;
69325;SDS011;56471;53.508;49.252;2022-07-03T07:38:12;3.05;;;2.40;;
69325;SDS011;56471;53.508;49.252;2022-07-03T07:40:38;2.67;;;2.40;;
69325;SDS011;56471;53.508;49.252;2022-07-03T07:43:04;3.25;;;2.60;;
69325;SDS011;56471;53.508;49.252;2022-07-03T07:45:30;2.88;;;2.53;;
69325;SDS011;56471;53.508;49.252;2022-07-03T07:47:56;4.50;;;2.65;;
69325;SDS011;56471;53.508;49.252;2022-07-03T07:50:21;5.10;;;2.70;;
69325;SDS011;56471;53.508;49.252;2022-07-03T07:52:47;2.80;;;2.60;;
69325;SDS011;56471;53.508;49.252;2022-07-03T07:55:13;3.70;;;2.30;;
69325;SDS011;56471;53.508;49.252;2022-07-03T07:57:39;3.35;;;2.30;;
69325;SDS011;56471;53.508;49.252;2022-07-03T08:00:07;3.88;;;2.40;;
69325;SDS011;56471;53.508;49.252;2022-07-03T08:02:37;2.50;;;2.30;;
69325;SDS011;56471;53.508;49.252;2022-07-03T08:05:22;2.70;;;2.50;;
69325;SDS011;56471;53.508;49.252;2022-07-03T08:08:00;2.60;;;2.40;;
69325;SDS011;56471;53.508;49.252;2022-07-03T08:10:34;3.75;;;2.55;;
69325;SDS011;56471;53.508;49.252;2022-07-03T08:13:11;3.47;;;2.53;;
69325;SDS011;56471;53.508;49.252;2022-07-03T08:15:38;4.88;;;2.75;;
69325;SDS011;56471;53.508;49.252;2022-07-03T08:18:05;2.58;;;2.38;;
69325;SDS011;56471;53.508;49.252;2022-07-03T08:20:31;2.92;;;2.60;;
69325;SDS011;56471;53.508;49.252;2022-07-03T08:22:58;2.58;;;2.38;;
69325;SDS011;56471;53.508;49.252;2022-07-03T08:25:24;3.13;;;2.50;;
69325;SDS011;56471;53.508;49.252;2022-07-03T08:27:51;3.17;;;2.70;;
69325;SDS011;56471;53.508;49.252;2022-07-03T08:30:17;4.40;;;2.80;;
69325;SDS011;56471;53.508;49.252;2022-07-03T08:32:47;3.15;;;2.70;;
69325;SDS011;56471;53.508;49.252;2022-07-03T08:35:14;3.80;;;2.53;;
69325;SDS011;56471;53.508;49.252;2022-07-03T08:37:40;2.60;;;2.40;;
69325;SDS011;56471;53.508;49.252;2022-07-03T08:40:08;3.00;;;2.58;;
69325;SDS011;56471;53.508;49.252;2022-07-03T08:42:36;3.33;;;2.75;;
69325;SDS011;56471;53.508;49.252;2022-07-03T08:45:07;2.97;;;2.70;;
69325;SDS011;56471;53.508;49.252;2022-07-03T08:47:38;4.63;;;2.53;;
69325;SDS011;56471;53.508;49.252;2022-07-03T08:50:07;3.00;;;2.70;;
69325;SDS011;56471;53.508;49.252;2022-07-03T08:52:33;3.97;;;2.70;;
69325;SDS011;56471;53.508;49.252;2022-07-03T08:55:01;3.67;;;2.50;;
69325;SDS011;56471;53.508;49.252;2022-07-03T08:57:29;4.15;;;2.88;;
69325;SDS011;56471;53.508;49.252;2022-07-03T08:59:56;3.60;;;2.50;;
69325;SDS011;56471;53.508;49.252;2022-07-03T09:02:23;2.67;;;2.47;;
69325;SDS011;56471;53.508;49.252;2022-07-03T09:04:50;4.18;;;2.80;;
69325;SDS011;56471;53.508;49.252;2022-07-03T09:07:17;5.35;;;2.63;;
69325;SDS011;56471;53.508;49.252;2022-07-03T09:09:45;2.83;;;2.60;;
69325;SDS011;56471;53.508;49.252;2022-07-03T09:12:12;2.85;;;2.55;;
69325;SDS011;56471;53.508;49.252;2022-07-03T09:14:39;4.25;;;2.50;;
69325;SDS011;56471;53.508;49.252;2022-07-03T09:17:07;3.03;;;2.67;;
69325;SDS011;56471;53.508;49.252;2022-07-03T09:19:47;3.85;;;2.70;;
69325;SDS011;56471;53.508;49.252;2022-07-03T09:22:16;3.55;;;2.67;;
69325;SDS011;56471;53.508;49.252;2022-07-03T09:24:44;4.05;;;2.60;;
69325;SDS011;56471;53.508;49.252;2022-07-03T09:27:10;2.85;;;2.55;;
69325;SDS011;56471;53.508;49.252;2022-07-03T09:29:57;3.15;;;2.70;;
69325;SDS011;56471;53.508;49.252;2022-07-03T09:32:25;3.00;;;2.65;;
69325;SDS011;56471;53.508;49.252;2022-07-03T09:37:55;4.75;;;2.88;;
69325;SDS011;56471;53.508;49.252;2022-07-03T09:40:23;3.65;;;2.65;;
69325;SDS011;56471;53.508;49.252;2022-07-03T09:43:08;3.33;;;2.42;;
69325;SDS011;56471;53.508;49.252;2022-07-03T09:51:12;2.83;;;2.60;;
69325;SDS011;56471;53.508;49.252;2022-07-03T09:53:57;3.28;;;2.67;;
69325;SDS011;56471;53.508;49.252;2022-07-03T09:56:28;2.50;;;2.30;;
69325;SDS011;56471;53.508;49.252;2022-07-03T09:59:03;3.60;;;2.30;;
69325;SDS011;56471;53.508;49.252;2022-07-03T10:01:29;2.90;;;2.60;;
69325;SDS011;56471;53.508;49.252;2022-07-03T10:04:08;2.88;;;2.60;;
69325;SDS011;56471;53.508;49.252;2022-07-03T10:09:22;3.05;;;2.75;;
69325;SDS011;56471;53.508;49.252;2022-07-03T10:11:48;2.92;;;2.60;;
69325;SDS011;56471;53.508;49.252;2022-07-03T10:14:15;3.10;;;2.70;;
69325;SDS011;56471;53.508;49.252;2022-07-03T10:16:42;4.93;;;2.65;;
69325;SDS011;56471;53.508;49.252;2022-07-03T10:19:12;4.63;;;2.78;;
69325;SDS011;56471;53.508;49.252;2022-07-03T10:21:41;5.60;;;2.70;;
69325;SDS011;56471;53.508;49.252;2022-07-03T10:24:07;3.00;;;2.70;;
69325;SDS011;56471;53.508;49.252;2022-07-03T10:26:34;4.03;;;2.90;;
69325;SDS011;56471;53.508;49.252;2022-07-03T10:29:00;4.07;;;2.90;;
69325;SDS011;56471;53.508;49.252;2022-07-03T10:31:26;3.30;;;3.00;;
69325;SDS011;56471;53.508;49.252;2022-07-03T10:33:53;4.63;;;2.92;;
69325;SDS011;56471;53.508;49.252;2022-07-03T10:36:21;4.65;;;2.60;;
69325;SDS011;56471;53.508;49.252;2022-07-03T10:38:48;3.00;;;2.70;;
69325;SDS011;56471;53.508;49.252;2022-07-03T10:41:16;4.03;;;2.65;;
69325;SDS011;56471;53.508;49.252;2022-07-03T10:44:07;4.57;;;2.85;;
69325;SDS011;56471;53.508;49.252;2022-07-03T10:47:02;3.13;;;2.83;;
69325;SDS011;56471;53.508;49.252;2022-07-03T10:49:28;3.97;;;2.90;;
69325;SDS011;56471;53.508;49.252;2022-07-03T10:52:00;3.92;;;2.70;;
69325;SDS011;56471;53.508;49.252;2022-07-03T10:57:07;3.25;;;2.83;;
69325;SDS011;56471;53.508;49.252;2022-07-03T11:02:20;3.40;;;2.75;;
69325;SDS011;56471;53.508;49.252;2022-07-03T11:07:25;3.28;;;2.70;;
69325;SDS011;56471;53.508;49.252;2022-07-03T11:15:42;2.88;;;2.67;;
69325;SDS011;56471;53.508;49.252;2022-07-03T11:18:14;4.18;;;2.88;;
69325;SDS011;56471;53.508;49.252;2022-07-03T11:28:08;3.25;;;2.90;;
69325;SDS011;56471;53.508;49.252;2022-07-03T11:41:26;3.30;;;2.85;;
69325;SDS011;56471;53.508;49.252;2022-07-03T11:44:01;3.58;;;3.10;;
69325;SDS011;56471;53.508;49.252;2022-07-03T11:46:29;4.45;;;2.90;;
69325;SDS011;56471;53.508;49.252;2022-07-03T11:51:42;4.18;;;3.08;;
69325;SDS011;56471;53.508;49.252;2022-07-03T11:54:19;3.65;;;3.05;;
69325;SDS011;56471;53.508;49.252;2022-07-03T11:56:45;3.40;;;2.90;;
69325;SDS011;56471;53.508;49.252;2022-07-03T11:59:10;4.13;;;2.95;;
69325;SDS011;56471;53.508;49.252;2022-07-03T12:01:37;4.60;;;3.00;;
69325;SDS011;56471;53.508;49.252;2022-07-03T12:04:13;3.08;;;2.78;;
69325;SDS011;56471;53.508;49.252;2022-07-03T12:09:22;3.63;;;3.17;;
69325;SDS011;56471;53.508;49.252;2022-07-03T12:12:04;5.18;;;3.30;;
69325;SDS011;56471;53.508;49.252;2022-07-03T12:14:48;4.93;;;3.40;;
69325;SDS011;56471;53.508;49.252;2022-07-03T12:17:19;5.05;;;3.20;;
69325;SDS011;56471;53.508;49.252;2022-07-03T12:22:25;6.55;;;2.95;;
69325;SDS011;56471;53.508;49.252;2022-07-03T12:24:59;5.25;;;3.30;;
69325;SDS011;56471;53.508;49.252;2022-07-03T12:27:32;19.85;;;3.85;;
69325;SDS011;56471;53.508;49.252;2022-07-03T12:29:59;26.55;;;3.67;;
69325;SDS011;56471;53.508;49.252;2022-07-03T12:32:26;27.95;;;3.90;;
69325;SDS011;56471;53.508;49.252;2022-07-03T12:34:52;493.80;;;390.23;;
69325;SDS011;56471;53.508;49.252;2022-07-03T12:37:30;133.27;;;86.32;;
69325;SDS011;56471;53.508;49.252;2022-07-03T12:42:26;10.60;;;7.55;;
69325;SDS011;56471;53.508;49.252;2022-07-03T12:44:59;4.97;;;4.03;;
69325;SDS011;56471;53.508;49.252;2022-07-03T12:47:30;5.00;;;3.50;;
69325;SDS011;56471;53.508;49.252;2022-07-03T12:49:57;5.00;;;3.53;;
69325;SDS011;56471;53.508;49.252;2022-07-03T12:52:25;9.25;;;3.50;;
69325;SDS011;56471;53.508;49.252;2022-07-03T12:54:52;5.63;;;3.35;;
69325;SDS011;56471;53.508;49.252;2022-07-03T12:57:19;5.95;;;3.55;;
69325;SDS011;56471;53.508;49.252;2022-07-03T13:00:15;4.10;;;3.15;;
69325;SDS011;56471;53.508;49.252;2022-07-03T13:02:49;3.88;;;3.40;;
69325;SDS011;56471;53.508;49.252;2022-07-03T13:05:18;6.13;;;3.30;;
69325;SDS011;56471;53.508;49.252;2022-07-03T13:07:49;4.32;;;3.17;;
69325;SDS011;56471;53.508;49.252;2022-07-03T13:10:17;6.40;;;3.58;;
69325;SDS011;56471;53.508;49.252;2022-07-03T13:12:52;5.90;;;3.30;;
69325;SDS011;56471;53.508;49.252;2022-07-03T13:15:25;4.50;;;3.50;;
69325;SDS011;56471;53.508;49.252;2022-07-03T13:20:22;5.55;;;3.50;;
69325;SDS011;56471;53.508;49.252;2022-07-03T13:22:50;4.28;;;3.60;;
69325;SDS011;56471;53.508;49.252;2022-07-03T13:25:16;4.82;;;3.53;;
69325;SDS011;56471;53.508;49.252;2022-07-03T13:27:42;7.15;;;3.22;;
69325;SDS011;56471;53.508;49.252;2022-07-03T13:30:10;4.90;;;3.40;;
69325;SDS011;56471;53.508;49.252;2022-07-03T13:32:37;9.05;;;2.63;;
69325;SDS011;56471;53.508;49.252;2022-07-03T13:35:03;13.18;;;3.17;;
69325;SDS011;56471;53.508;49.252;2022-07-03T13:37:30;421.52;;;303.65;;
69325;SDS011;56471;53.508;49.252;2022-07-03T13:39:56;778.33;;;665.25;;
69325;SDS011;56471;53.508;49.252;2022-07-03T13:42:22;251.57;;;178.48;;
69325;SDS011;56471;53.508;49.252;2022-07-03T13:44:47;91.63;;;56.22;;
69325;SDS011;56471;53.508;49.252;2022-07-03T13:47:15;18.30;;;10.63;;
69325;SDS011;56471;53.508;49.252;2022-07-03T13:49:41;9.00;;;6.05;;
69325;SDS011;56471;53.508;49.252;2022-07-03T13:52:07;5.10;;;3.80;;
69325;SDS011;56471;53.508;49.252;2022-07-03T13:54:33;4.47;;;3.38;;
69325;SDS011;56471;53.508;49.252;2022-07-03T13:56:59;5.57;;;3.40;;
69325;SDS011;56471;53.508;49.252;2022-07-03T13:59:26;6.05;;;3.60;;
69325;SDS011;56471;53.508;49.252;2022-07-03T14:01:52;3.70;;;3.30;;
69325;SDS011;56471;53.508;49.252;2022-07-03T14:04:17;5.35;;;3.70;;
69325;SDS011;56471;53.508;49.252;2022-07-03T14:06:43;4.55;;;3.42;;
69325;SDS011;56471;53.508;49.252;2022-07-03T14:09:09;4.20;;;3.47;;
69325;SDS011;56471;53.508;49.252;2022-07-03T14:11:35;7.35;;;3.25;;
69325;SDS011;56471;53.508;49.252;2022-07-03T14:14:00;3.40;;;3.05;;
69325;SDS011;56471;53.508;49.252;2022-07-03T14:16:26;4.75;;;3.53;;
69325;SDS011;56471;53.508;49.252;2022-07-03T14:18:52;5.63;;;3.33;;
69325;SDS011;56471;53.508;49.252;2022-07-03T14:21:18;4.90;;;3.58;;
69325;SDS011;56471;53.508;49.252;2022-07-03T14:23:43;4.00;;;3.33;;
69325;SDS011;56471;53.508;49.252;2022-07-03T14:26:09;5.22;;;3.30;;
69325;SDS011;56471;53.508;49.252;2022-07-03T14:28:35;3.80;;;3.17;;
69325;SDS011;56471;53.508;49.252;2022-07-03T14:31:19;4.78;;;3.60;;
69325;SDS011;56471;53.508;49.252;2022-07-03T14:33:51;4.18;;;3.28;;
69325;SDS011;56471;53.508;49.252;2022-07-03T14:36:20;4.68;;;3.50;;
69325;SDS011;56471;53.508;49.252;2022-07-03T14:38:46;6.70;;;3.22;;
69325;SDS011;56471;53.508;49.252;2022-07-03T14:41:12;4.25;;;3.50;;
69325;SDS011;56471;53.508;49.252;2022-07-03T14:43:38;4.20;;;3.20;;
69325;SDS011;56471;53.508;49.252;2022-07-03T14:46:04;4.45;;;3.45;;
69325;SDS011;56471;53.508;49.252;2022-07-03T14:48:30;5.68;;;3.67;;
69325;SDS011;56471;53.508;49.252;2022-07-03T14:50:55;5.25;;;3.75;;
69325;SDS011;56471;53.508;49.252;2022-07-03T14:53:21;4.65;;;3.28;;
69325;SDS011;56471;53.508;49.252;2022-07-03T14:55:47;6.65;;;3.65;;
69325;SDS011;56471;53.508;49.252;2022-07-03T14:58:15;9.48;;;3.85;;
69325;SDS011;56471;53.508;49.252;2022-07-03T15:00:53;4.57;;;3.40;;
69325;SDS011;56471;53.508;49.252;2022-07-03T15:05:54;5.60;;;3.72;;
69325;SDS011;56471;53.508;49.252;2022-07-03T15:11:05;6.32;;;3.60;;
69325;SDS011;56471;53.508;49.252;2022-07-03T15:13:33;6.10;;;4.00;;
69325;SDS011;56471;53.508;49.252;2022-07-03T15:16:00;6.43;;;3.67;;
69325;SDS011;56471;53.508;49.252;2022-07-03T15:18:26;6.60;;;3.95;;
69325;SDS011;56471;53.508;49.252;2022-07-03T15:20:54;7.18;;;3.90;;
69325;SDS011;56471;53.508;49.252;2022-07-03T15:23:22;7.43;;;3.90;;
69325;SDS011;56471;53.508;49.252;2022-07-03T15:25:49;25.60;;;3.65;;
69325;SDS011;56471;53.508;49.252;2022-07-03T15:28:15;431.88;;;333.45;;
69325;SDS011;56471;53.508;49.252;2022-07-03T15:30:48;311.45;;;240.48;;
69325;SDS011;56471;53.508;49.252;2022-07-03T15:33:15;92.78;;;57.90;;
69325;SDS011;56471;53.508;49.252;2022-07-03T15:35:48;35.50;;;19.33;;
69325;SDS011;56471;53.508;49.252;2022-07-03T15:38:23;16.55;;;8.10;;
69325;SDS011;56471;53.508;49.252;2022-07-03T15:40:53;14.52;;;5.72;;
69325;SDS011;56471;53.508;49.252;2022-07-03T15:46:25;17.90;;;2.92;;
69325;SDS011;56471;53.508;49.252;2022-07-03T15:51:46;8.00;;;2.10;;
69325;SDS011;56471;53.508;49.252;2022-07-03T15:56:58;8.73;;;2.80;;
69325;SDS011;56471;53.508;49.252;2022-07-03T15:59:27;8.68;;;4.20;;
69325;SDS011;56471;53.508;49.252;2022-07-03T16:01:57;7.55;;;4.60;;
69325;SDS011;56471;53.508;49.252;2022-07-03T16:07:17;6.07;;;4.25;;
69325;SDS011;56471;53.508;49.252;2022-07-03T16:09:43;7.57;;;4.30;;
69325;SDS011;56471;53.508;49.252;2022-07-03T16:12:10;7.07;;;4.75;;
69325;SDS011;56471;53.508;49.252;2022-07-03T16:14:48;8.57;;;4.88;;
69325;SDS011;56471;53.508;49.252;2022-07-03T16:17:18;6.80;;;5.10;;
69325;SDS011;56471;53.508;49.252;2022-07-03T16:19:47;6.35;;;4.80;;
69325;SDS011;56471;53.508;49.252;2022-07-03T16:22:14;6.15;;;4.60;;
69325;SDS011;56471;53.508;49.252;2022-07-03T16:24:44;6.95;;;4.32;;
69325;SDS011;56471;53.508;49.252;2022-07-03T16:27:12;7.82;;;4.40;;
69325;SDS011;56471;53.508;49.252;2022-07-03T16:29:39;7.57;;;4.20;;
69325;SDS011;56471;53.508;49.252;2022-07-03T16:32:07;6.18;;;4.47;;
69325;SDS011;56471;53.508;49.252;2022-07-03T16:34:46;6.32;;;4.53;;